sensor_id;sensor_type;location;lat;lon;timestamp;P1;durP1;ratioP1;P2;durP2;ratioP2
28086;SDS011;15392;48.912;8.380;2022-10-31T00:00:45;1.02;;;0.60;;
28086;SDS011;15392;48.912;8.380;2022-10-31T00:03:11;1.50;;;0.63;;
28086;SDS011;15392;48.912;8.380;2022-10-31T00:05:41;0.82;;;0.63;;
28086;SDS011;15392;48.912;8.380;2022-10-31T00:08:08;0.82;;;0.68;;
28086;SDS011;15392;48.912;8.380;2022-10-31T00:10:36;2.72;;;0.60;;
28086;SDS011;15392;48.912;8.380;2022-10-31T00:13:03;1.75;;;1.00;;
28086;SDS011;15392;48.912;8.380;2022-10-31T00:15:30;0.57;;;0.40;;
28086;SDS011;15392;48.912;8.380;2022-10-31T00:17:58;1.10;;;0.88;;
28086;SDS011;15392;48.912;8.380;2022-10-31T00:20:24;0.77;;;0.75;;
28086;SDS011;15392;48.912;8.380;2022-10-31T00:22:50;1.63;;;0.80;;
28086;SDS011;15392;48.912;8.380;2022-10-31T00:25:16;1.17;;;0.63;;
28086;SDS011;15392;48.912;8.380;2022-10-31T00:27:42;0.70;;;0.70;;
28086;SDS011;15392;48.912;8.380;2022-10-31T00:30:08;0.80;;;0.80;;
28086;SDS011;15392;48.912;8.380;2022-10-31T00:32:34;1.00;;;0.75;;
28086;SDS011;15392;48.912;8.380;2022-10-31T00:35:00;1.63;;;0.70;;
28086;SDS011;15392;48.912;8.380;2022-10-31T00:37:26;0.90;;;0.90;;
28086;SDS011;15392;48.912;8.380;2022-10-31T00:39:52;1.02;;;0.60;;
28086;SDS011;15392;48.912;8.380;2022-10-31T00:42:21;0.70;;;0.70;;
28086;SDS011;15392;48.912;8.380;2022-10-31T00:44:46;1.05;;;0.90;;
28086;SDS011;15392;48.912;8.380;2022-10-31T00:47:12;0.70;;;0.70;;
28086;SDS011;15392;48.912;8.380;2022-10-31T00:49:38;1.83;;;0.90;;
28086;SDS011;15392;48.912;8.380;2022-10-31T00:52:03;2.03;;;0.90;;
28086;SDS011;15392;48.912;8.380;2022-10-31T00:54:29;1.15;;;0.80;;
28086;SDS011;15392;48.912;8.380;2022-10-31T00:56:56;1.52;;;0.80;;
28086;SDS011;15392;48.912;8.380;2022-10-31T00:59:22;1.67;;;0.90;;
28086;SDS011;15392;48.912;8.380;2022-10-31T01:01:48;1.50;;;0.82;;
28086;SDS011;15392;48.912;8.380;2022-10-31T01:04:14;0.80;;;0.77;;
28086;SDS011;15392;48.912;8.380;2022-10-31T01:06:39;0.63;;;0.63;;
28086;SDS011;15392;48.912;8.380;2022-10-31T01:09:05;0.80;;;0.80;;
28086;SDS011;15392;48.912;8.380;2022-10-31T01:11:31;0.80;;;0.80;;
28086;SDS011;15392;48.912;8.380;2022-10-31T01:13:57;1.35;;;0.90;;
28086;SDS011;15392;48.912;8.380;2022-10-31T01:16:23;1.50;;;0.77;;
28086;SDS011;15392;48.912;8.380;2022-10-31T01:18:51;0.70;;;0.70;;
28086;SDS011;15392;48.912;8.380;2022-10-31T01:21:22;0.90;;;0.73;;
28086;SDS011;15392;48.912;8.380;2022-10-31T01:23:50;2.38;;;0.60;;
28086;SDS011;15392;48.912;8.380;2022-10-31T01:26:20;0.73;;;0.73;;
28086;SDS011;15392;48.912;8.380;2022-10-31T01:28:56;1.65;;;0.70;;
28086;SDS011;15392;48.912;8.380;2022-10-31T01:31:25;0.95;;;0.70;;
28086;SDS011;15392;48.912;8.380;2022-10-31T01:33:54;1.00;;;0.75;;
28086;SDS011;15392;48.912;8.380;2022-10-31T01:36:28;0.95;;;0.82;;
28086;SDS011;15392;48.912;8.380;2022-10-31T01:38:55;0.70;;;0.57;;
28086;SDS011;15392;48.912;8.380;2022-10-31T01:41:25;0.82;;;0.60;;
28086;SDS011;15392;48.912;8.380;2022-10-31T01:44:01;3.85;;;0.90;;
28086;SDS011;15392;48.912;8.380;2022-10-31T01:49:38;0.80;;;0.80;;
28086;SDS011;15392;48.912;8.380;2022-10-31T01:55:15;1.20;;;1.00;;
28086;SDS011;15392;48.912;8.380;2022-10-31T02:01:04;0.90;;;0.90;;
28086;SDS011;15392;48.912;8.380;2022-10-31T02:03:30;0.98;;;0.98;;
28086;SDS011;15392;48.912;8.380;2022-10-31T02:05:56;0.82;;;0.82;;
28086;SDS011;15392;48.912;8.380;2022-10-31T02:08:26;1.13;;;0.80;;
28086;SDS011;15392;48.912;8.380;2022-10-31T02:10:58;2.80;;;0.90;;
28086;SDS011;15392;48.912;8.380;2022-10-31T02:13:26;2.08;;;1.20;;
28086;SDS011;15392;48.912;8.380;2022-10-31T02:15:55;0.98;;;0.90;;
28086;SDS011;15392;48.912;8.380;2022-10-31T02:18:24;2.55;;;1.00;;
28086;SDS011;15392;48.912;8.380;2022-10-31T02:20:55;2.08;;;0.98;;
28086;SDS011;15392;48.912;8.380;2022-10-31T02:32:34;0.70;;;0.70;;
28086;SDS011;15392;48.912;8.380;2022-10-31T02:44:07;1.48;;;0.73;;
28086;SDS011;15392;48.912;8.380;2022-10-31T02:46:48;0.70;;;0.70;;
28086;SDS011;15392;48.912;8.380;2022-10-31T02:52:39;0.75;;;0.70;;
28086;SDS011;15392;48.912;8.380;2022-10-31T02:57:49;0.80;;;0.80;;
28086;SDS011;15392;48.912;8.380;2022-10-31T03:03:28;1.77;;;0.80;;
28086;SDS011;15392;48.912;8.380;2022-10-31T03:09:11;0.85;;;0.85;;
28086;SDS011;15392;48.912;8.380;2022-10-31T03:12:00;0.70;;;0.70;;
28086;SDS011;15392;48.912;8.380;2022-10-31T03:18:00;0.80;;;0.80;;
28086;SDS011;15392;48.912;8.380;2022-10-31T03:20:34;0.70;;;0.70;;
28086;SDS011;15392;48.912;8.380;2022-10-31T03:23:06;1.27;;;0.80;;
28086;SDS011;15392;48.912;8.380;2022-10-31T03:25:38;1.10;;;0.82;;
28086;SDS011;15392;48.912;8.380;2022-10-31T03:28:05;1.60;;;0.90;;
28086;SDS011;15392;48.912;8.380;2022-10-31T03:30:35;1.85;;;1.20;;
28086;SDS011;15392;48.912;8.380;2022-10-31T03:33:04;0.95;;;0.90;;
28086;SDS011;15392;48.912;8.380;2022-10-31T03:35:35;1.02;;;0.73;;
28086;SDS011;15392;48.912;8.380;2022-10-31T03:38:04;0.80;;;0.75;;
28086;SDS011;15392;48.912;8.380;2022-10-31T03:40:31;1.08;;;0.80;;
28086;SDS011;15392;48.912;8.380;2022-10-31T03:43:03;0.82;;;0.82;;
28086;SDS011;15392;48.912;8.380;2022-10-31T03:45:35;1.02;;;0.70;;
28086;SDS011;15392;48.912;8.380;2022-10-31T03:48:07;0.88;;;0.70;;
28086;SDS011;15392;48.912;8.380;2022-10-31T03:50:38;2.10;;;0.80;;
28086;SDS011;15392;48.912;8.380;2022-10-31T03:53:24;0.65;;;0.60;;
28086;SDS011;15392;48.912;8.380;2022-10-31T03:56:02;1.33;;;0.70;;
28086;SDS011;15392;48.912;8.380;2022-10-31T03:58:38;0.80;;;0.60;;
28086;SDS011;15392;48.912;8.380;2022-10-31T04:01:14;0.68;;;0.68;;
28086;SDS011;15392;48.912;8.380;2022-10-31T04:03:42;0.75;;;0.75;;
28086;SDS011;15392;48.912;8.380;2022-10-31T04:06:10;0.80;;;0.80;;
28086;SDS011;15392;48.912;8.380;2022-10-31T04:08:43;1.20;;;0.98;;
28086;SDS011;15392;48.912;8.380;2022-10-31T04:11:15;0.95;;;0.80;;
28086;SDS011;15392;48.912;8.380;2022-10-31T04:13:46;0.80;;;0.60;;
28086;SDS011;15392;48.912;8.380;2022-10-31T04:16:13;1.13;;;0.82;;
28086;SDS011;15392;48.912;8.380;2022-10-31T04:18:41;1.10;;;0.80;;
28086;SDS011;15392;48.912;8.380;2022-10-31T04:21:07;0.88;;;0.82;;
28086;SDS011;15392;48.912;8.380;2022-10-31T04:23:34;0.60;;;0.60;;
28086;SDS011;15392;48.912;8.380;2022-10-31T04:26:01;0.63;;;0.60;;
28086;SDS011;15392;48.912;8.380;2022-10-31T04:28:27;0.68;;;0.68;;
28086;SDS011;15392;48.912;8.380;2022-10-31T04:30:53;1.08;;;0.63;;
28086;SDS011;15392;48.912;8.380;2022-10-31T04:33:19;0.77;;;0.77;;
28086;SDS011;15392;48.912;8.380;2022-10-31T04:35:45;1.25;;;0.93;;
28086;SDS011;15392;48.912;8.380;2022-10-31T04:38:11;0.90;;;0.85;;
28086;SDS011;15392;48.912;8.380;2022-10-31T04:40:37;0.80;;;0.80;;
28086;SDS011;15392;48.912;8.380;2022-10-31T04:43:03;0.77;;;0.77;;
28086;SDS011;15392;48.912;8.380;2022-10-31T04:45:29;1.00;;;0.82;;
28086;SDS011;15392;48.912;8.380;2022-10-31T04:47:54;0.70;;;0.70;;
28086;SDS011;15392;48.912;8.380;2022-10-31T04:50:20;0.60;;;0.60;;
28086;SDS011;15392;48.912;8.380;2022-10-31T04:52:46;0.80;;;0.80;;
28086;SDS011;15392;48.912;8.380;2022-10-31T04:55:12;0.88;;;0.85;;
28086;SDS011;15392;48.912;8.380;2022-10-31T04:57:42;1.95;;;0.90;;
28086;SDS011;15392;48.912;8.380;2022-10-31T05:00:13;1.25;;;0.70;;
28086;SDS011;15392;48.912;8.380;2022-10-31T05:02:43;0.68;;;0.68;;
28086;SDS011;15392;48.912;8.380;2022-10-31T05:05:13;1.08;;;0.80;;
28086;SDS011;15392;48.912;8.380;2022-10-31T05:07:41;1.52;;;0.75;;
28086;SDS011;15392;48.912;8.380;2022-10-31T05:10:09;0.88;;;0.80;;
28086;SDS011;15392;48.912;8.380;2022-10-31T05:12:37;0.70;;;0.70;;
28086;SDS011;15392;48.912;8.380;2022-10-31T05:15:11;1.10;;;0.88;;
28086;SDS011;15392;48.912;8.380;2022-10-31T05:17:37;0.63;;;0.63;;
28086;SDS011;15392;48.912;8.380;2022-10-31T05:20:03;0.55;;;0.55;;
28086;SDS011;15392;48.912;8.380;2022-10-31T05:22:29;1.35;;;0.77;;
28086;SDS011;15392;48.912;8.380;2022-10-31T05:24:55;0.70;;;0.70;;
28086;SDS011;15392;48.912;8.380;2022-10-31T05:27:21;0.90;;;0.85;;
28086;SDS011;15392;48.912;8.380;2022-10-31T05:29:46;0.80;;;0.80;;
28086;SDS011;15392;48.912;8.380;2022-10-31T05:32:12;0.70;;;0.70;;
28086;SDS011;15392;48.912;8.380;2022-10-31T05:34:38;1.40;;;0.82;;
28086;SDS011;15392;48.912;8.380;2022-10-31T05:37:04;0.57;;;0.50;;
28086;SDS011;15392;48.912;8.380;2022-10-31T05:39:29;1.00;;;0.90;;
28086;SDS011;15392;48.912;8.380;2022-10-31T05:41:55;1.17;;;0.98;;
28086;SDS011;15392;48.912;8.380;2022-10-31T05:44:21;1.17;;;0.90;;
28086;SDS011;15392;48.912;8.380;2022-10-31T05:46:46;0.75;;;0.70;;
28086;SDS011;15392;48.912;8.380;2022-10-31T05:49:12;0.90;;;0.90;;
28086;SDS011;15392;48.912;8.380;2022-10-31T05:51:38;0.77;;;0.77;;
28086;SDS011;15392;48.912;8.380;2022-10-31T05:54:03;0.70;;;0.70;;
28086;SDS011;15392;48.912;8.380;2022-10-31T05:56:29;2.72;;;0.80;;
28086;SDS011;15392;48.912;8.380;2022-10-31T05:58:55;0.75;;;0.75;;
28086;SDS011;15392;48.912;8.380;2022-10-31T06:01:21;0.70;;;0.70;;
28086;SDS011;15392;48.912;8.380;2022-10-31T06:03:47;0.73;;;0.73;;
28086;SDS011;15392;48.912;8.380;2022-10-31T06:06:12;0.60;;;0.60;;
28086;SDS011;15392;48.912;8.380;2022-10-31T06:08:38;1.75;;;1.00;;
28086;SDS011;15392;48.912;8.380;2022-10-31T06:11:05;1.08;;;0.75;;
28086;SDS011;15392;48.912;8.380;2022-10-31T06:13:31;0.63;;;0.63;;
28086;SDS011;15392;48.912;8.380;2022-10-31T06:15:56;1.05;;;0.73;;
28086;SDS011;15392;48.912;8.380;2022-10-31T06:18:22;0.70;;;0.70;;
28086;SDS011;15392;48.912;8.380;2022-10-31T06:20:48;0.75;;;0.75;;
28086;SDS011;15392;48.912;8.380;2022-10-31T06:23:14;1.10;;;1.00;;
28086;SDS011;15392;48.912;8.380;2022-10-31T06:25:39;0.80;;;0.80;;
28086;SDS011;15392;48.912;8.380;2022-10-31T06:28:05;0.73;;;0.73;;
28086;SDS011;15392;48.912;8.380;2022-10-31T06:30:31;0.75;;;0.75;;
28086;SDS011;15392;48.912;8.380;2022-10-31T06:33:03;0.95;;;0.95;;
28086;SDS011;15392;48.912;8.380;2022-10-31T06:35:30;0.77;;;0.77;;
28086;SDS011;15392;48.912;8.380;2022-10-31T06:37:56;1.10;;;1.02;;
28086;SDS011;15392;48.912;8.380;2022-10-31T06:40:22;0.88;;;0.88;;
28086;SDS011;15392;48.912;8.380;2022-10-31T06:42:55;1.15;;;1.05;;
28086;SDS011;15392;48.912;8.380;2022-10-31T06:45:25;1.23;;;1.08;;
28086;SDS011;15392;48.912;8.380;2022-10-31T06:47:52;0.80;;;0.80;;
28086;SDS011;15392;48.912;8.380;2022-10-31T06:50:19;1.58;;;1.23;;
28086;SDS011;15392;48.912;8.380;2022-10-31T06:52:52;3.08;;;2.85;;
28086;SDS011;15392;48.912;8.380;2022-10-31T06:55:20;3.55;;;3.25;;
28086;SDS011;15392;48.912;8.380;2022-10-31T06:58:20;2.75;;;2.20;;
28086;SDS011;15392;48.912;8.380;2022-10-31T07:00:39;2.67;;;2.53;;
28086;SDS011;15392;48.912;8.380;2022-10-31T07:03:06;3.20;;;3.00;;
28086;SDS011;15392;48.912;8.380;2022-10-31T07:05:36;3.33;;;3.13;;
28086;SDS011;15392;48.912;8.380;2022-10-31T07:08:03;2.75;;;2.60;;
28086;SDS011;15392;48.912;8.380;2022-10-31T07:10:33;2.42;;;2.33;;
28086;SDS011;15392;48.912;8.380;2022-10-31T07:13:05;3.25;;;2.35;;
28086;SDS011;15392;48.912;8.380;2022-10-31T07:15:35;1.90;;;1.80;;
28086;SDS011;15392;48.912;8.380;2022-10-31T07:18:04;1.63;;;1.52;;
28086;SDS011;15392;48.912;8.380;2022-10-31T07:20:32;2.00;;;1.90;;
28086;SDS011;15392;48.912;8.380;2022-10-31T07:22:58;1.88;;;1.52;;
28086;SDS011;15392;48.912;8.380;2022-10-31T07:25:25;2.30;;;1.60;;
28086;SDS011;15392;48.912;8.380;2022-10-31T07:27:51;2.10;;;1.70;;
28086;SDS011;15392;48.912;8.380;2022-10-31T07:30:17;1.60;;;1.50;;
28086;SDS011;15392;48.912;8.380;2022-10-31T07:32:44;1.63;;;1.52;;
28086;SDS011;15392;48.912;8.380;2022-10-31T07:35:13;1.80;;;1.70;;
28086;SDS011;15392;48.912;8.380;2022-10-31T07:37:47;1.15;;;1.13;;
28086;SDS011;15392;48.912;8.380;2022-10-31T07:40:13;1.30;;;1.20;;
28086;SDS011;15392;48.912;8.380;2022-10-31T07:42:40;1.92;;;1.20;;
28086;SDS011;15392;48.912;8.380;2022-10-31T07:45:12;1.25;;;0.90;;
28086;SDS011;15392;48.912;8.380;2022-10-31T07:47:42;1.20;;;1.10;;
28086;SDS011;15392;48.912;8.380;2022-10-31T07:50:20;1.00;;;0.98;;
28086;SDS011;15392;48.912;8.380;2022-10-31T07:52:58;1.40;;;1.00;;
28086;SDS011;15392;48.912;8.380;2022-10-31T07:55:31;0.98;;;0.90;;
28086;SDS011;15392;48.912;8.380;2022-10-31T07:58:05;0.88;;;0.88;;
28086;SDS011;15392;48.912;8.380;2022-10-31T08:00:37;0.80;;;0.80;;
28086;SDS011;15392;48.912;8.380;2022-10-31T08:03:15;0.77;;;0.77;;
28086;SDS011;15392;48.912;8.380;2022-10-31T08:05:43;0.88;;;0.70;;
28086;SDS011;15392;48.912;8.380;2022-10-31T08:08:12;0.90;;;0.90;;
28086;SDS011;15392;48.912;8.380;2022-10-31T08:10:39;1.75;;;0.88;;
28086;SDS011;15392;48.912;8.380;2022-10-31T08:13:06;0.90;;;0.80;;
28086;SDS011;15392;48.912;8.380;2022-10-31T08:15:35;0.80;;;0.80;;
28086;SDS011;15392;48.912;8.380;2022-10-31T08:18:04;0.65;;;0.65;;
28086;SDS011;15392;48.912;8.380;2022-10-31T08:20:40;2.05;;;0.90;;
28086;SDS011;15392;48.912;8.380;2022-10-31T08:23:08;1.15;;;1.10;;
28086;SDS011;15392;48.912;8.380;2022-10-31T08:25:36;0.95;;;0.80;;
28086;SDS011;15392;48.912;8.380;2022-10-31T08:28:02;0.88;;;0.88;;
28086;SDS011;15392;48.912;8.380;2022-10-31T08:30:30;0.98;;;0.95;;
28086;SDS011;15392;48.912;8.380;2022-10-31T08:33:05;2.38;;;1.00;;
28086;SDS011;15392;48.912;8.380;2022-10-31T08:35:36;0.68;;;0.68;;
28086;SDS011;15392;48.912;8.380;2022-10-31T08:38:02;1.70;;;0.85;;
28086;SDS011;15392;48.912;8.380;2022-10-31T08:40:28;0.90;;;0.90;;
28086;SDS011;15392;48.912;8.380;2022-10-31T08:45:42;1.00;;;0.90;;
28086;SDS011;15392;48.912;8.380;2022-10-31T08:48:10;1.05;;;0.95;;
28086;SDS011;15392;48.912;8.380;2022-10-31T08:50:38;0.93;;;0.80;;
28086;SDS011;15392;48.912;8.380;2022-10-31T08:53:05;0.90;;;0.90;;
28086;SDS011;15392;48.912;8.380;2022-10-31T08:55:40;0.98;;;0.70;;
28086;SDS011;15392;48.912;8.380;2022-10-31T08:58:09;0.98;;;0.98;;
28086;SDS011;15392;48.912;8.380;2022-10-31T09:00:38;0.95;;;0.95;;
28086;SDS011;15392;48.912;8.380;2022-10-31T09:03:05;1.00;;;0.77;;
28086;SDS011;15392;48.912;8.380;2022-10-31T09:05:35;0.80;;;0.80;;
28086;SDS011;15392;48.912;8.380;2022-10-31T09:08:01;0.95;;;0.73;;
28086;SDS011;15392;48.912;8.380;2022-10-31T09:10:29;1.02;;;0.90;;
28086;SDS011;15392;48.912;8.380;2022-10-31T09:13:04;1.08;;;0.90;;
28086;SDS011;15392;48.912;8.380;2022-10-31T09:15:36;1.25;;;0.70;;
28086;SDS011;15392;48.912;8.380;2022-10-31T09:18:05;1.07;;;0.80;;
28086;SDS011;15392;48.912;8.380;2022-10-31T09:20:33;0.80;;;0.80;;
28086;SDS011;15392;48.912;8.380;2022-10-31T09:23:04;1.15;;;0.90;;
28086;SDS011;15392;48.912;8.380;2022-10-31T09:25:38;1.05;;;1.05;;
28086;SDS011;15392;48.912;8.380;2022-10-31T09:28:05;1.50;;;0.88;;
28086;SDS011;15392;48.912;8.380;2022-10-31T09:30:34;1.58;;;0.80;;
28086;SDS011;15392;48.912;8.380;2022-10-31T09:33:05;0.75;;;0.75;;
28086;SDS011;15392;48.912;8.380;2022-10-31T09:35:35;1.08;;;0.98;;
28086;SDS011;15392;48.912;8.380;2022-10-31T09:38:06;1.00;;;0.75;;
28086;SDS011;15392;48.912;8.380;2022-10-31T09:40:46;0.90;;;0.90;;
28086;SDS011;15392;48.912;8.380;2022-10-31T09:43:25;0.95;;;0.95;;
28086;SDS011;15392;48.912;8.380;2022-10-31T09:49:02;1.10;;;1.10;;
28086;SDS011;15392;48.912;8.380;2022-10-31T09:52:01;1.10;;;0.98;;
28086;SDS011;15392;48.912;8.380;2022-10-31T09:54:56;0.80;;;0.80;;
28086;SDS011;15392;48.912;8.380;2022-10-31T09:57:30;1.88;;;1.08;;
28086;SDS011;15392;48.912;8.380;2022-10-31T09:59:59;0.75;;;0.75;;
28086;SDS011;15392;48.912;8.380;2022-10-31T10:02:35;0.90;;;0.90;;
28086;SDS011;15392;48.912;8.380;2022-10-31T10:05:08;0.80;;;0.80;;
28086;SDS011;15392;48.912;8.380;2022-10-31T10:25:14;0.90;;;0.90;;
28086;SDS011;15392;48.912;8.380;2022-10-31T10:30:44;1.45;;;1.13;;
28086;SDS011;15392;48.912;8.380;2022-10-31T10:33:41;0.70;;;0.70;;
28086;SDS011;15392;48.912;8.380;2022-10-31T10:36:28;1.08;;;1.08;;
28086;SDS011;15392;48.912;8.380;2022-10-31T10:39:15;0.85;;;0.85;;
28086;SDS011;15392;48.912;8.380;2022-10-31T10:41:44;1.20;;;1.10;;
28086;SDS011;15392;48.912;8.380;2022-10-31T10:44:33;1.15;;;1.15;;
28086;SDS011;15392;48.912;8.380;2022-10-31T10:47:21;1.10;;;1.00;;
28086;SDS011;15392;48.912;8.380;2022-10-31T10:50:10;1.00;;;0.90;;
28086;SDS011;15392;48.912;8.380;2022-10-31T10:55:59;1.17;;;1.08;;
28086;SDS011;15392;48.912;8.380;2022-10-31T10:58:46;1.23;;;1.20;;
28086;SDS011;15392;48.912;8.380;2022-10-31T11:01:13;1.90;;;1.20;;
28086;SDS011;15392;48.912;8.380;2022-10-31T11:03:40;0.98;;;0.98;;
28086;SDS011;15392;48.912;8.380;2022-10-31T11:06:28;1.38;;;1.30;;
28086;SDS011;15392;48.912;8.380;2022-10-31T11:08:53;1.67;;;1.58;;
28086;SDS011;15392;48.912;8.380;2022-10-31T11:11:23;3.08;;;1.80;;
28086;SDS011;15392;48.912;8.380;2022-10-31T11:14:00;1.40;;;1.30;;
28086;SDS011;15392;48.912;8.380;2022-10-31T11:16:38;1.63;;;1.38;;
28086;SDS011;15392;48.912;8.380;2022-10-31T11:21:37;1.23;;;1.08;;
28086;SDS011;15392;48.912;8.380;2022-10-31T11:26:32;1.38;;;1.08;;
28086;SDS011;15392;48.912;8.380;2022-10-31T11:29:00;2.40;;;1.30;;
28086;SDS011;15392;48.912;8.380;2022-10-31T11:31:28;2.50;;;1.60;;
28086;SDS011;15392;48.912;8.380;2022-10-31T11:34:02;1.45;;;1.17;;
28086;SDS011;15392;48.912;8.380;2022-10-31T11:36:32;1.33;;;1.10;;
28086;SDS011;15392;48.912;8.380;2022-10-31T11:39:04;1.10;;;1.10;;
28086;SDS011;15392;48.912;8.380;2022-10-31T11:41:40;1.92;;;1.08;;
28086;SDS011;15392;48.912;8.380;2022-10-31T11:46:51;1.20;;;1.10;;
28086;SDS011;15392;48.912;8.380;2022-10-31T11:49:37;1.38;;;1.23;;
28086;SDS011;15392;48.912;8.380;2022-10-31T11:52:22;0.88;;;0.88;;
28086;SDS011;15392;48.912;8.380;2022-10-31T11:54:58;1.17;;;1.08;;
28086;SDS011;15392;48.912;8.380;2022-10-31T11:57:47;0.95;;;0.90;;
28086;SDS011;15392;48.912;8.380;2022-10-31T12:06:21;1.73;;;1.10;;
28086;SDS011;15392;48.912;8.380;2022-10-31T12:08:53;1.30;;;1.20;;
28086;SDS011;15392;48.912;8.380;2022-10-31T12:14:42;1.67;;;1.15;;
28086;SDS011;15392;48.912;8.380;2022-10-31T12:17:42;1.50;;;1.10;;
28086;SDS011;15392;48.912;8.380;2022-10-31T12:48:42;1.20;;;1.10;;
28086;SDS011;15392;48.912;8.380;2022-10-31T12:51:40;1.27;;;1.10;;
28086;SDS011;15392;48.912;8.380;2022-10-31T13:00:11;0.80;;;0.80;;
28086;SDS011;15392;48.912;8.380;2022-10-31T13:02:56;1.20;;;1.20;;
28086;SDS011;15392;48.912;8.380;2022-10-31T13:05:51;1.08;;;0.98;;
28086;SDS011;15392;48.912;8.380;2022-10-31T13:08:28;1.05;;;0.95;;
28086;SDS011;15392;48.912;8.380;2022-10-31T13:11:07;1.13;;;1.10;;
28086;SDS011;15392;48.912;8.380;2022-10-31T13:16:54;2.08;;;1.30;;
28086;SDS011;15392;48.912;8.380;2022-10-31T13:22:00;1.40;;;1.25;;
28086;SDS011;15392;48.912;8.380;2022-10-31T13:24:42;2.03;;;1.15;;
28086;SDS011;15392;48.912;8.380;2022-10-31T13:27:37;1.15;;;1.00;;
28086;SDS011;15392;48.912;8.380;2022-10-31T13:30:22;1.50;;;1.20;;
28086;SDS011;15392;48.912;8.380;2022-10-31T13:32:58;1.02;;;1.02;;
28086;SDS011;15392;48.912;8.380;2022-10-31T13:41:18;1.30;;;1.20;;
28086;SDS011;15392;48.912;8.380;2022-10-31T13:44:13;1.42;;;1.27;;
28086;SDS011;15392;48.912;8.380;2022-10-31T13:46:49;1.45;;;1.35;;
28086;SDS011;15392;48.912;8.380;2022-10-31T13:50:02;1.58;;;1.08;;
28086;SDS011;15392;48.912;8.380;2022-10-31T13:54:48;1.13;;;1.13;;
28086;SDS011;15392;48.912;8.380;2022-10-31T13:57:38;1.90;;;1.23;;
28086;SDS011;15392;48.912;8.380;2022-10-31T14:02:45;2.97;;;1.00;;
28086;SDS011;15392;48.912;8.380;2022-10-31T14:08:01;1.35;;;1.25;;
28086;SDS011;15392;48.912;8.380;2022-10-31T14:10:31;1.17;;;1.08;;
28086;SDS011;15392;48.912;8.380;2022-10-31T14:13:18;2.47;;;1.05;;
28086;SDS011;15392;48.912;8.380;2022-10-31T14:15:56;1.45;;;1.27;;
28086;SDS011;15392;48.912;8.380;2022-10-31T14:18:32;1.15;;;1.10;;
28086;SDS011;15392;48.912;8.380;2022-10-31T14:21:01;1.33;;;1.00;;
28086;SDS011;15392;48.912;8.380;2022-10-31T14:27:03;1.45;;;1.20;;
28086;SDS011;15392;48.912;8.380;2022-10-31T14:29:44;0.90;;;0.90;;
28086;SDS011;15392;48.912;8.380;2022-10-31T14:34:56;1.17;;;1.08;;
28086;SDS011;15392;48.912;8.380;2022-10-31T14:43:30;1.60;;;1.13;;
28086;SDS011;15392;48.912;8.380;2022-10-31T14:46:18;2.25;;;1.13;;
28086;SDS011;15392;48.912;8.380;2022-10-31T14:49:02;1.17;;;0.93;;
28086;SDS011;15392;48.912;8.380;2022-10-31T14:51:48;1.23;;;1.10;;
28086;SDS011;15392;48.912;8.380;2022-10-31T14:54:28;1.75;;;1.08;;
28086;SDS011;15392;48.912;8.380;2022-10-31T14:57:06;1.13;;;1.02;;
28086;SDS011;15392;48.912;8.380;2022-10-31T14:59:42;2.25;;;1.35;;
28086;SDS011;15392;48.912;8.380;2022-10-31T15:02:19;1.40;;;1.30;;
28086;SDS011;15392;48.912;8.380;2022-10-31T15:04:53;1.60;;;1.15;;
28086;SDS011;15392;48.912;8.380;2022-10-31T15:07:21;1.17;;;1.08;;
28086;SDS011;15392;48.912;8.380;2022-10-31T15:09:58;1.42;;;1.00;;
28086;SDS011;15392;48.912;8.380;2022-10-31T15:12:40;1.10;;;1.00;;
28086;SDS011;15392;48.912;8.380;2022-10-31T15:17:51;0.80;;;0.80;;
28086;SDS011;15392;48.912;8.380;2022-10-31T15:20:22;0.98;;;0.80;;
28086;SDS011;15392;48.912;8.380;2022-10-31T15:22:51;2.40;;;1.00;;
28086;SDS011;15392;48.912;8.380;2022-10-31T15:25:19;1.00;;;1.00;;
28086;SDS011;15392;48.912;8.380;2022-10-31T15:27:48;1.13;;;0.80;;
28086;SDS011;15392;48.912;8.380;2022-10-31T15:30:16;1.10;;;1.00;;
28086;SDS011;15392;48.912;8.380;2022-10-31T15:32:44;1.25;;;1.10;;
28086;SDS011;15392;48.912;8.380;2022-10-31T15:35:14;0.98;;;0.98;;
28086;SDS011;15392;48.912;8.380;2022-10-31T15:37:54;1.33;;;1.20;;
28086;SDS011;15392;48.912;8.380;2022-10-31T15:40:23;1.65;;;1.27;;
28086;SDS011;15392;48.912;8.380;2022-10-31T15:42:52;1.48;;;1.10;;
28086;SDS011;15392;48.912;8.380;2022-10-31T15:45:26;1.30;;;1.20;;
28086;SDS011;15392;48.912;8.380;2022-10-31T15:48:13;1.48;;;1.35;;
28086;SDS011;15392;48.912;8.380;2022-10-31T15:50:55;1.23;;;1.13;;
28086;SDS011;15392;48.912;8.380;2022-10-31T15:53:26;1.88;;;1.50;;
28086;SDS011;15392;48.912;8.380;2022-10-31T15:56:05;2.22;;;1.08;;
28086;SDS011;15392;48.912;8.380;2022-10-31T15:58:42;1.30;;;1.17;;
28086;SDS011;15392;48.912;8.380;2022-10-31T16:01:21;1.05;;;1.00;;
28086;SDS011;15392;48.912;8.380;2022-10-31T16:04:19;1.35;;;1.25;;
28086;SDS011;15392;48.912;8.380;2022-10-31T16:06:58;1.80;;;1.10;;
28086;SDS011;15392;48.912;8.380;2022-10-31T16:09:47;3.08;;;1.38;;
28086;SDS011;15392;48.912;8.380;2022-10-31T16:12:58;1.90;;;1.00;;
28086;SDS011;15392;48.912;8.380;2022-10-31T16:15:17;1.30;;;1.20;;
28086;SDS011;15392;48.912;8.380;2022-10-31T16:17:47;0.98;;;0.98;;
28086;SDS011;15392;48.912;8.380;2022-10-31T16:20:20;3.50;;;0.90;;
28086;SDS011;15392;48.912;8.380;2022-10-31T16:22:50;1.20;;;1.10;;
28086;SDS011;15392;48.912;8.380;2022-10-31T16:25:27;0.95;;;0.95;;
28086;SDS011;15392;48.912;8.380;2022-10-31T16:28:16;1.00;;;1.00;;
28086;SDS011;15392;48.912;8.380;2022-10-31T16:30:51;3.08;;;2.88;;
28086;SDS011;15392;48.912;8.380;2022-10-31T16:35:58;2.33;;;2.22;;
28086;SDS011;15392;48.912;8.380;2022-10-31T16:38:28;2.22;;;2.13;;
28086;SDS011;15392;48.912;8.380;2022-10-31T16:40:53;1.40;;;1.30;;
28086;SDS011;15392;48.912;8.380;2022-10-31T16:43:20;1.75;;;1.30;;
28086;SDS011;15392;48.912;8.380;2022-10-31T16:45:48;1.60;;;1.50;;
28086;SDS011;15392;48.912;8.380;2022-10-31T16:48:17;1.20;;;1.20;;
28086;SDS011;15392;48.912;8.380;2022-10-31T16:50:46;1.23;;;1.23;;
28086;SDS011;15392;48.912;8.380;2022-10-31T16:53:13;1.40;;;1.30;;
28086;SDS011;15392;48.912;8.380;2022-10-31T16:55:42;1.20;;;1.10;;
28086;SDS011;15392;48.912;8.380;2022-10-31T16:58:19;1.02;;;1.02;;
28086;SDS011;15392;48.912;8.380;2022-10-31T17:00:50;1.55;;;1.45;;
28086;SDS011;15392;48.912;8.380;2022-10-31T17:03:16;1.45;;;1.35;;
28086;SDS011;15392;48.912;8.380;2022-10-31T17:05:42;1.45;;;1.35;;
28086;SDS011;15392;48.912;8.380;2022-10-31T17:08:08;1.30;;;1.30;;
28086;SDS011;15392;48.912;8.380;2022-10-31T17:10:34;3.00;;;2.80;;
28086;SDS011;15392;48.912;8.380;2022-10-31T17:13:01;2.50;;;2.40;;
28086;SDS011;15392;48.912;8.380;2022-10-31T17:15:32;2.20;;;2.10;;
28086;SDS011;15392;48.912;8.380;2022-10-31T17:18:05;3.03;;;2.83;;
28086;SDS011;15392;48.912;8.380;2022-10-31T17:20:31;3.13;;;2.92;;
28086;SDS011;15392;48.912;8.380;2022-10-31T17:22:58;2.78;;;2.67;;
28086;SDS011;15392;48.912;8.380;2022-10-31T17:25:26;2.60;;;2.50;;
28086;SDS011;15392;48.912;8.380;2022-10-31T17:27:55;1.88;;;1.77;;
28086;SDS011;15392;48.912;8.380;2022-10-31T17:30:22;1.40;;;1.30;;
28086;SDS011;15392;48.912;8.380;2022-10-31T17:32:48;1.27;;;1.13;;
28086;SDS011;15392;48.912;8.380;2022-10-31T17:35:15;5.57;;;5.05;;
28086;SDS011;15392;48.912;8.380;2022-10-31T17:37:42;5.20;;;4.80;;
28086;SDS011;15392;48.912;8.380;2022-10-31T17:40:10;3.28;;;2.83;;
28086;SDS011;15392;48.912;8.380;2022-10-31T17:42:41;4.30;;;4.05;;
28086;SDS011;15392;48.912;8.380;2022-10-31T17:45:15;4.72;;;4.43;;
28086;SDS011;15392;48.912;8.380;2022-10-31T17:47:42;17.27;;;15.95;;
28086;SDS011;15392;48.912;8.380;2022-10-31T17:50:10;10.93;;;10.23;;
28086;SDS011;15392;48.912;8.380;2022-10-31T17:52:36;5.88;;;5.47;;
28086;SDS011;15392;48.912;8.380;2022-10-31T17:55:02;3.08;;;2.95;;